createdAt,value
2022-09-12T00:01:46.854Z,14.33
2022-09-12T00:04:13.468Z,14.25
2022-09-12T00:06:39.940Z,14.15
2022-09-12T00:09:14.065Z,14.26
2022-09-12T00:11:43.621Z,14.08
2022-09-12T00:14:13.031Z,13.99
2022-09-12T00:16:40.442Z,14.11
2022-09-12T00:19:08.053Z,13.92
2022-09-12T00:21:36.977Z,14.02
2022-09-12T00:24:03.565Z,13.88
2022-09-12T00:26:30.416Z,13.93
2022-09-12T00:28:56.930Z,13.94
2022-09-12T00:31:25.464Z,13.89
2022-09-12T00:33:55.019Z,13.67
2022-09-12T00:36:24.582Z,13.76
2022-09-12T00:38:52.236Z,13.84
2022-09-12T00:41:18.671Z,13.64
2022-09-12T00:44:04.360Z,13.56
2022-09-12T00:46:30.999Z,13.71
2022-09-12T00:49:10.969Z,13.78
2022-09-12T00:51:37.777Z,13.72
2022-09-12T00:54:10.490Z,13.36
2022-09-12T00:56:38.893Z,13.14
2022-09-12T00:59:12.450Z,13.44
2022-09-12T01:01:41.964Z,13.57
2022-09-12T01:04:11.301Z,13.51
2022-09-12T01:06:41.301Z,13.62
2022-09-12T01:09:09.766Z,13.46
2022-09-12T01:11:38.995Z,13.39
2022-09-12T01:14:06.900Z,13.28
2022-09-12T01:16:37.374Z,13.47
2022-09-12T01:19:36.117Z,13.34
2022-09-12T01:22:33.698Z,13.24
2022-09-12T01:25:31.186Z,13.33
2022-09-12T01:28:31.466Z,13.49
2022-09-12T01:31:27.261Z,13.41
2022-09-12T01:34:16.270Z,13.46
2022-09-12T01:37:11.561Z,13.60
2022-09-12T01:40:01.606Z,13.32
2022-09-12T01:42:45.120Z,13.35
2022-09-12T01:45:15.268Z,13.47
2022-09-12T01:48:02.215Z,13.51
2022-09-12T01:50:33.771Z,13.38
2022-09-12T01:53:19.058Z,13.39
2022-09-12T01:55:51.281Z,13.45
2022-09-12T01:58:20.836Z,13.34
2022-09-12T02:00:55.894Z,13.09
2022-09-12T02:03:29.206Z,13.03
2022-09-12T02:06:01.628Z,12.90
2022-09-12T02:09:06.467Z,12.79
2022-09-12T02:11:35.522Z,12.83
2022-09-12T02:14:28.790Z,12.74
2022-09-12T02:17:04.259Z,13.05
2022-09-12T02:19:37.059Z,13.20
2022-09-12T02:22:06.337Z,13.14
2022-09-12T02:24:40.005Z,13.03
2022-09-12T02:27:13.941Z,13.01
2022-09-12T02:29:41.143Z,13.23
2022-09-12T02:32:32.547Z,13.29
2022-09-12T02:35:07.000Z,13.00
2022-09-12T02:38:01.177Z,12.95
2022-09-12T02:40:29.107Z,12.90
2022-09-12T02:42:56.182Z,12.84
2022-09-12T02:45:23.649Z,12.61
2022-09-12T02:47:56.200Z,12.53
2022-09-12T02:50:23.178Z,12.56
2022-09-12T02:52:51.052Z,12.71
2022-09-12T02:55:17.690Z,12.74
2022-09-12T02:57:44.557Z,12.87
2022-09-12T03:00:12.088Z,12.94
2022-09-12T03:02:50.797Z,12.90
2022-09-12T03:05:34.844Z,12.63
2022-09-12T03:08:28.752Z,12.70
2022-09-12T03:11:29.753Z,12.77
2022-09-12T03:13:56.161Z,12.64
2022-09-12T03:16:43.206Z,12.72
2022-09-12T03:19:37.457Z,12.78
2022-09-12T03:22:23.737Z,12.82
2022-09-12T03:25:16.464Z,12.63
2022-09-12T03:27:46.619Z,12.09
2022-09-12T03:30:13.134Z,12.16
2022-09-12T03:32:48.455Z,12.34
2022-09-12T03:35:20.960Z,12.52
2022-09-12T03:37:50.740Z,12.38
2022-09-12T03:40:17.702Z,12.04
2022-09-12T03:42:44.195Z,11.99
2022-09-12T03:45:11.278Z,12.27
2022-09-12T03:47:38.026Z,12.23
2022-09-12T03:50:05.242Z,12.21
2022-09-12T03:52:32.303Z,12.27
2022-09-12T03:54:58.810Z,12.43
2022-09-12T03:57:25.302Z,12.18
2022-09-12T03:59:51.772Z,12.37
2022-09-12T04:02:18.477Z,12.26
2022-09-12T04:04:48.702Z,12.56
2022-09-12T04:07:16.607Z,12.53
2022-09-12T04:09:43.387Z,12.18
2022-09-12T04:12:09.945Z,12.23
2022-09-12T04:14:36.508Z,12.35
2022-09-12T04:17:03.121Z,12.41
2022-09-12T04:19:29.683Z,12.24
2022-09-12T04:21:56.175Z,12.19
2022-09-12T04:24:22.828Z,12.08
2022-09-12T04:26:49.330Z,12.04
2022-09-12T04:29:15.966Z,12.04
2022-09-12T04:31:43.043Z,12.07
2022-09-12T04:34:09.770Z,12.02
2022-09-12T04:36:36.741Z,11.88
2022-09-12T04:39:04.648Z,11.91
2022-09-12T04:41:33.947Z,11.90
2022-09-12T04:44:05.652Z,12.12
2022-09-12T04:46:35.948Z,12.22
2022-09-12T04:49:02.772Z,12.09
2022-09-12T04:51:31.974Z,12.23
2022-09-12T04:54:01.251Z,12.30
2022-09-12T04:56:28.818Z,12.18
2022-09-12T04:59:00.437Z,12.14
2022-09-12T05:01:28.385Z,12.32
2022-09-12T05:03:56.079Z,12.24
2022-09-12T05:06:24.869Z,12.49
2022-09-12T05:08:52.689Z,12.33
2022-09-12T05:11:25.467Z,12.16
2022-09-12T05:13:54.933Z,12.28
2022-09-12T05:16:23.016Z,12.25
2022-09-12T05:18:50.240Z,12.37
2022-09-12T05:21:19.216Z,12.57
2022-09-12T05:23:47.746Z,12.84
2022-09-12T05:26:16.173Z,12.91
2022-09-12T05:28:43.739Z,13.11
2022-09-12T05:31:25.341Z,13.37
2022-09-12T05:33:53.268Z,13.51
2022-09-12T05:36:22.128Z,13.55
2022-09-12T05:38:48.584Z,13.91
2022-09-12T05:41:21.855Z,14.05
2022-09-12T05:43:55.830Z,14.27
2022-09-12T05:46:25.668Z,14.42
2022-09-12T05:48:56.422Z,14.51
2022-09-12T05:51:28.042Z,14.84
2022-09-12T05:53:57.241Z,15.18
2022-09-12T05:56:26.340Z,14.88
2022-09-12T05:59:01.899Z,15.10
2022-09-12T06:01:30.094Z,15.65
2022-09-12T06:04:00.738Z,16.16
2022-09-12T06:06:29.738Z,16.20
2022-09-12T06:08:59.014Z,16.44
2022-09-12T06:11:28.232Z,16.37
2022-09-12T06:13:57.345Z,16.76
2022-09-12T06:16:26.157Z,16.83
2022-09-12T06:18:54.954Z,16.82
2022-09-12T06:21:22.741Z,17.02
2022-09-12T06:23:49.712Z,17.18
2022-09-12T06:26:18.384Z,17.92
2022-09-12T06:28:45.406Z,18.03
2022-09-12T06:31:17.296Z,18.38
2022-09-12T06:33:45.974Z,18.38
2022-09-12T06:36:43.130Z,17.25
2022-09-12T06:39:15.392Z,17.51
2022-09-12T06:41:44.244Z,17.74
2022-09-12T06:44:14.779Z,17.62
2022-09-12T06:46:42.050Z,17.82
2022-09-12T06:49:08.608Z,17.25
2022-09-12T06:51:36.241Z,18.21
2022-09-12T06:54:03.660Z,18.37
2022-09-12T06:56:30.178Z,17.80
2022-09-12T06:58:58.069Z,17.95
2022-09-12T07:01:30.147Z,18.08
2022-09-12T07:03:59.199Z,18.18
2022-09-12T07:06:31.951Z,18.08
2022-09-12T07:09:00.903Z,18.41
2022-09-12T07:11:33.428Z,19.67
2022-09-12T07:14:01.525Z,19.09
2022-09-12T07:16:28.879Z,18.88
2022-09-12T07:18:58.092Z,19.96
2022-09-12T07:21:25.175Z,19.27
2022-09-12T07:24:00.407Z,18.88
2022-09-12T07:26:29.141Z,19.29
2022-09-12T07:29:08.231Z,19.07
2022-09-12T07:31:44.944Z,19.70
2022-09-12T07:34:11.658Z,19.66
2022-09-12T07:36:39.068Z,19.68
2022-09-12T07:39:05.902Z,19.85
2022-09-12T07:41:33.872Z,20.68
2022-09-12T07:44:02.095Z,20.74
2022-09-12T07:46:30.525Z,20.91
2022-09-12T07:48:58.831Z,20.51
2022-09-12T07:51:27.384Z,20.35
2022-09-12T07:53:54.153Z,20.89
2022-09-12T07:56:22.055Z,21.19
2022-09-12T07:58:50.720Z,21.06
2022-09-12T08:01:19.920Z,20.95
2022-09-12T08:03:48.562Z,21.13
2022-09-12T08:06:16.503Z,21.85
2022-09-12T08:08:43.450Z,21.24
2022-09-12T08:11:13.612Z,22.39
2022-09-12T08:13:41.687Z,21.92
2022-09-12T08:16:14.404Z,22.02
2022-09-12T08:18:41.309Z,21.58
2022-09-12T08:21:13.445Z,21.42
2022-09-12T08:23:39.993Z,22.88
2022-09-12T08:26:06.733Z,22.87
2022-09-12T08:28:35.423Z,22.86
2022-09-12T08:31:10.694Z,24.46
2022-09-12T08:33:37.435Z,23.85
2022-09-12T08:36:13.027Z,22.91
2022-09-12T08:38:41.745Z,22.47
2022-09-12T08:41:20.030Z,22.63
2022-09-12T08:44:17.655Z,22.79
2022-09-12T08:47:19.160Z,23.08
2022-09-12T08:50:12.297Z,23.85
2022-09-12T08:53:02.290Z,24.47
2022-09-12T08:55:36.109Z,23.61
2022-09-12T08:58:11.374Z,24.80
2022-09-12T09:00:45.059Z,23.83
2022-09-12T09:03:44.993Z,23.75
2022-09-12T09:06:47.137Z,23.27
2022-09-12T09:09:19.630Z,23.59
2022-09-12T09:11:59.341Z,23.97
2022-09-12T09:14:56.366Z,23.80
2022-09-12T09:17:32.174Z,23.72
2022-09-12T09:20:21.122Z,23.87
2022-09-12T09:22:56.810Z,25.32
2022-09-12T09:25:37.250Z,25.50
2022-09-12T09:28:19.133Z,26.13
2022-09-12T09:30:46.064Z,26.25
2022-09-12T09:33:22.793Z,25.36
2022-09-12T09:36:03.762Z,23.92
2022-09-12T09:38:46.725Z,24.04
2022-09-12T09:41:20.278Z,23.87
2022-09-12T09:43:47.035Z,24.06
2022-09-12T09:46:14.163Z,25.34
2022-09-12T09:48:44.603Z,24.75
2022-09-12T09:51:12.081Z,25.12
2022-09-12T09:54:00.302Z,26.07
2022-09-12T09:56:35.137Z,25.72
2022-09-12T09:59:29.668Z,25.81
2022-09-12T10:02:01.991Z,26.03
2022-09-12T10:04:31.486Z,26.75
2022-09-12T10:07:00.838Z,25.24
2022-09-12T10:09:35.383Z,25.56
2022-09-12T10:12:29.064Z,26.52
2022-09-12T10:15:15.760Z,27.10
2022-09-12T10:17:44.352Z,25.34
2022-09-12T10:20:29.861Z,26.28
2022-09-12T10:22:56.914Z,26.15
2022-09-12T10:25:25.792Z,26.87
2022-09-12T10:27:55.919Z,26.84
2022-09-12T10:30:28.328Z,27.31
2022-09-12T10:33:06.888Z,27.82
2022-09-12T10:35:48.306Z,26.87
2022-09-12T10:38:26.699Z,26.48
2022-09-12T10:41:03.337Z,27.01
2022-09-12T10:43:40.669Z,27.17
2022-09-12T10:46:16.327Z,27.11
2022-09-12T10:48:47.484Z,26.25
2022-09-12T10:51:26.122Z,26.60
2022-09-12T10:53:56.418Z,27.43
2022-09-12T10:56:30.801Z,26.53
2022-09-12T10:59:18.102Z,25.97
2022-09-12T11:02:14.830Z,26.34
2022-09-12T11:04:56.057Z,27.95
2022-09-12T11:07:37.788Z,27.90
2022-09-12T11:10:35.727Z,26.83
2022-09-12T11:13:29.931Z,27.08
2022-09-12T11:16:22.946Z,26.70
2022-09-12T11:19:08.013Z,28.67
2022-09-12T11:21:59.881Z,29.16
2022-09-12T11:24:57.440Z,29.44
2022-09-12T11:27:48.501Z,28.35
2022-09-12T11:30:17.634Z,28.51
2022-09-12T11:33:19.190Z,29.01
2022-09-12T11:35:55.259Z,29.51
2022-09-12T11:38:28.251Z,29.31
2022-09-12T11:41:02.023Z,28.03
2022-09-12T11:43:31.250Z,27.56
2022-09-12T11:46:05.862Z,30.01
2022-09-12T11:48:41.658Z,31.47
2022-09-12T11:51:27.385Z,30.95
2022-09-12T11:54:06.627Z,29.85
2022-09-12T11:56:35.672Z,28.12
2022-09-12T11:59:14.076Z,28.38
2022-09-12T12:01:48.370Z,28.35
2022-09-12T12:04:20.513Z,28.59
2022-09-12T12:06:52.567Z,27.30
2022-09-12T12:09:19.194Z,28.30
2022-09-12T12:11:51.274Z,28.26
2022-09-12T12:14:22.708Z,28.69
2022-09-12T12:16:50.172Z,30.81
2022-09-12T12:19:16.607Z,30.46
2022-09-12T12:21:45.263Z,29.24
2022-09-12T12:24:24.849Z,29.00
2022-09-12T12:27:22.671Z,30.39
2022-09-12T12:29:49.165Z,30.20
2022-09-12T12:32:21.106Z,29.39
2022-09-12T12:34:48.263Z,30.76
2022-09-12T12:37:25.505Z,29.98
2022-09-12T12:40:09.099Z,28.98
2022-09-12T12:42:35.657Z,28.47
2022-09-12T12:45:17.822Z,27.37
2022-09-12T12:47:46.275Z,26.35
2022-09-12T12:50:21.619Z,27.20
2022-09-12T12:52:54.276Z,30.34
2022-09-12T12:55:31.212Z,28.83
2022-09-12T12:58:00.442Z,30.02
2022-09-12T13:00:40.047Z,29.81
2022-09-12T13:03:06.627Z,30.13
2022-09-12T13:05:49.089Z,29.82
2022-09-12T13:08:18.290Z,30.56
2022-09-12T13:10:53.572Z,30.99
2022-09-12T13:13:26.798Z,30.69
2022-09-12T13:15:54.094Z,29.06
2022-09-12T13:18:28.206Z,29.40
2022-09-12T13:21:21.717Z,29.99
2022-09-12T13:24:06.193Z,29.44
2022-09-12T13:26:40.381Z,27.32
2022-09-12T13:29:16.207Z,29.15
2022-09-12T13:31:47.241Z,28.59
2022-09-12T13:34:57.652Z,28.21
2022-09-12T13:37:33.138Z,28.57
2022-09-12T13:40:29.778Z,25.41
2022-09-12T13:43:28.402Z,25.34
2022-09-12T13:45:54.959Z,26.47
2022-09-12T13:48:25.391Z,28.23
2022-09-12T13:50:55.299Z,28.18
2022-09-12T13:53:24.989Z,28.02
2022-09-12T13:55:55.205Z,28.80
2022-09-12T13:58:34.446Z,29.56
2022-09-12T14:01:12.294Z,29.33
2022-09-12T14:04:14.932Z,28.30
2022-09-12T14:06:50.081Z,27.93
2022-09-12T14:09:25.236Z,28.65
2022-09-12T14:11:53.641Z,27.29
2022-09-12T14:14:31.668Z,26.19
2022-09-12T14:17:00.459Z,26.72
2022-09-12T14:19:29.112Z,25.92
2022-09-12T14:21:57.468Z,26.43
2022-09-12T14:24:24.210Z,25.68
2022-09-12T14:26:54.121Z,25.86
2022-09-12T14:29:21.892Z,26.46
2022-09-12T14:32:01.836Z,25.71
2022-09-12T14:34:28.926Z,25.53
2022-09-12T14:36:56.379Z,25.63
2022-09-12T14:39:37.674Z,25.92
2022-09-12T14:42:14.388Z,26.24
2022-09-12T14:44:56.588Z,25.94
2022-09-12T14:47:27.512Z,25.84
2022-09-12T14:49:54.698Z,25.78
2022-09-12T14:52:29.850Z,25.62
2022-09-12T14:55:01.722Z,25.59
2022-09-12T14:57:28.206Z,25.50
2022-09-12T15:00:09.443Z,25.54
2022-09-12T15:02:36.171Z,25.60
2022-09-12T15:05:08.985Z,25.60
2022-09-12T15:07:44.137Z,25.44
2022-09-12T15:10:16.350Z,25.34
2022-09-12T15:12:42.830Z,25.02
2022-09-12T15:15:18.536Z,25.27
2022-09-12T15:17:45.051Z,25.01
2022-09-12T15:20:13.370Z,25.04
2022-09-12T15:22:42.125Z,25.11
2022-09-12T15:25:10.552Z,24.90
2022-09-12T15:27:40.697Z,25.16
2022-09-12T15:30:10.136Z,25.15
2022-09-12T15:32:37.298Z,25.30
2022-09-12T15:35:04.146Z,25.01
2022-09-12T15:37:31.020Z,25.12
2022-09-12T15:39:57.585Z,25.01
2022-09-12T15:42:31.297Z,25.24
2022-09-12T15:45:02.393Z,25.39
2022-09-12T15:47:29.856Z,25.11
2022-09-12T15:49:56.467Z,24.79
2022-09-12T15:52:22.930Z,24.73
2022-09-12T15:54:49.438Z,24.75
2022-09-12T15:57:15.910Z,24.75
2022-09-12T15:59:42.386Z,24.78
2022-09-12T16:02:10.107Z,24.88
2022-09-12T16:04:36.631Z,24.71
2022-09-12T16:07:03.184Z,24.43
2022-09-12T16:09:29.735Z,24.66
2022-09-12T16:11:56.198Z,24.69
2022-09-12T16:14:23.918Z,24.36
2022-09-12T16:16:54.429Z,24.36
2022-09-12T16:19:21.171Z,24.40
2022-09-12T16:21:48.670Z,24.52
2022-09-12T16:24:15.480Z,24.52
2022-09-12T16:26:42.012Z,24.50
2022-09-12T16:29:10.438Z,24.34
2022-09-12T16:31:38.338Z,24.11
2022-09-12T16:34:04.923Z,24.23
2022-09-12T16:36:31.412Z,23.94
2022-09-12T16:38:57.892Z,23.98
2022-09-12T16:41:25.156Z,23.73
2022-09-12T16:43:52.181Z,23.82
2022-09-12T16:46:21.230Z,23.83
2022-09-12T16:48:58.476Z,23.76
2022-09-12T16:51:28.083Z,23.78
2022-09-12T16:53:55.162Z,23.69
2022-09-12T16:56:22.634Z,23.66
2022-09-12T16:58:49.524Z,23.61
2022-09-12T17:01:21.535Z,23.52
2022-09-12T17:03:52.900Z,23.47
2022-09-12T17:06:19.997Z,23.52
2022-09-12T17:08:49.816Z,23.58
2022-09-12T17:11:26.661Z,23.56
2022-09-12T17:14:11.365Z,23.51
2022-09-12T17:16:46.952Z,23.41
2022-09-12T17:19:26.479Z,23.28
2022-09-12T17:21:53.118Z,23.16
2022-09-12T17:24:20.095Z,22.84
2022-09-12T17:26:46.881Z,22.98
2022-09-12T17:29:13.907Z,23.07
2022-09-12T17:31:41.701Z,22.53
2022-09-12T17:34:08.919Z,22.39
2022-09-12T17:36:35.633Z,22.31
2022-09-12T17:39:03.887Z,22.02
2022-09-12T17:41:34.239Z,21.97
2022-09-12T17:44:02.552Z,21.87
2022-09-12T17:46:34.977Z,21.82
2022-09-12T17:49:03.735Z,21.62
2022-09-12T17:51:31.129Z,21.44
2022-09-12T17:54:00.572Z,21.35
2022-09-12T17:56:29.504Z,21.46
2022-09-12T17:58:57.843Z,21.21
2022-09-12T18:01:43.729Z,21.15
2022-09-12T18:04:10.813Z,21.00
2022-09-12T18:06:37.633Z,20.74
2022-09-12T18:09:06.866Z,20.83
2022-09-12T18:11:33.881Z,20.91
2022-09-12T18:14:01.370Z,20.64
2022-09-12T18:16:31.506Z,20.26
2022-09-12T18:19:01.123Z,20.36
2022-09-12T18:21:28.944Z,20.54
2022-09-12T18:23:58.862Z,20.19
2022-09-12T18:26:27.215Z,20.31
2022-09-12T18:28:54.714Z,20.43
2022-09-12T18:31:23.966Z,20.39
2022-09-12T18:33:50.900Z,20.07
2022-09-12T18:36:18.886Z,19.93
2022-09-12T18:38:45.691Z,20.09
2022-09-12T18:41:14.963Z,20.10
2022-09-12T18:43:42.200Z,20.02
2022-09-12T18:46:14.708Z,19.91
2022-09-12T18:48:41.770Z,19.69
2022-09-12T18:51:20.346Z,19.69
2022-09-12T18:53:56.183Z,19.64
2022-09-12T18:56:24.669Z,19.58
2022-09-12T18:58:53.312Z,19.44
2022-09-12T19:01:23.010Z,19.46
2022-09-12T19:03:49.842Z,19.39
2022-09-12T19:06:28.315Z,19.07
2022-09-12T19:08:56.119Z,18.92
2022-09-12T19:11:23.999Z,18.75
2022-09-12T19:13:53.022Z,19.03
2022-09-12T19:16:22.587Z,19.22
2022-09-12T19:18:50.326Z,19.30
2022-09-12T19:21:19.981Z,19.24
2022-09-12T19:23:48.570Z,19.27
2022-09-12T19:26:16.900Z,19.23
2022-09-12T19:28:43.914Z,18.78
2022-09-12T19:31:12.912Z,18.79
2022-09-12T19:33:40.416Z,18.71
2022-09-12T19:36:22.273Z,18.87
2022-09-12T19:38:56.258Z,18.66
2022-09-12T19:41:22.854Z,18.52
2022-09-12T19:43:49.430Z,18.52
2022-09-12T19:46:21.374Z,18.58
2022-09-12T19:48:48.343Z,18.31
2022-09-12T19:51:16.483Z,18.35
2022-09-12T19:53:43.608Z,18.28
2022-09-12T19:56:12.858Z,18.22
2022-09-12T19:58:41.513Z,18.37
2022-09-12T20:01:16.549Z,18.12
2022-09-12T20:03:43.923Z,18.11
2022-09-12T20:06:13.296Z,18.01
2022-09-12T20:08:42.125Z,18.06
2022-09-12T20:11:10.113Z,17.86
2022-09-12T20:13:36.842Z,17.83
2022-09-12T20:16:07.519Z,17.84
2022-09-12T20:18:34.520Z,17.88
2022-09-12T20:21:15.492Z,18.01
2022-09-12T20:23:42.401Z,17.90
2022-09-12T20:26:09.478Z,17.87
2022-09-12T20:28:36.961Z,17.98
2022-09-12T20:31:06.003Z,17.90
2022-09-12T20:33:32.733Z,17.71
2022-09-12T20:36:14.446Z,17.51
2022-09-12T20:38:42.759Z,17.37
2022-09-12T20:41:11.191Z,17.39
2022-09-12T20:43:40.888Z,17.60
2022-09-12T20:46:11.783Z,17.42
2022-09-12T20:48:38.938Z,17.35
2022-09-12T20:51:06.641Z,17.24
2022-09-12T20:53:35.248Z,17.34
2022-09-12T20:56:03.597Z,17.33
2022-09-12T20:58:30.062Z,17.57
2022-09-12T21:00:57.050Z,17.39
2022-09-12T21:03:23.609Z,17.43
2022-09-12T21:05:50.092Z,17.19
2022-09-12T21:08:17.044Z,17.39
2022-09-12T21:10:44.477Z,17.39
2022-09-12T21:13:12.122Z,17.25
2022-09-12T21:15:39.749Z,17.18
2022-09-12T21:18:06.311Z,17.07
2022-09-12T21:20:33.362Z,16.93
2022-09-12T21:23:00.474Z,17.06
2022-09-12T21:25:28.907Z,16.79
2022-09-12T21:27:55.491Z,17.03
2022-09-12T21:30:22.309Z,17.06
2022-09-12T21:32:48.871Z,17.17
2022-09-12T21:35:15.546Z,16.82
2022-09-12T21:37:42.067Z,16.70
2022-09-12T21:40:08.971Z,16.87
2022-09-12T21:42:35.565Z,16.84
2022-09-12T21:45:02.101Z,16.65
2022-09-12T21:47:28.669Z,16.61
2022-09-12T21:49:55.324Z,16.60
2022-09-12T21:52:22.049Z,16.55
2022-09-12T21:54:48.509Z,16.68
2022-09-12T21:57:15.005Z,16.60
2022-09-12T21:59:41.527Z,16.47
2022-09-12T22:02:08.582Z,16.49
2022-09-12T22:04:35.139Z,16.62
2022-09-12T22:07:02.034Z,16.64
2022-09-12T22:09:28.544Z,16.38
2022-09-12T22:11:55.592Z,16.14
2022-09-12T22:14:22.095Z,16.20
2022-09-12T22:16:49.408Z,16.12
2022-09-12T22:19:16.064Z,16.44
2022-09-12T22:22:02.517Z,16.28
2022-09-12T22:24:29.416Z,16.27
2022-09-12T22:26:59.008Z,16.11
2022-09-12T22:29:26.388Z,16.39
2022-09-12T22:31:53.593Z,16.35
2022-09-12T22:34:20.219Z,16.19
2022-09-12T22:36:48.314Z,15.94
2022-09-12T22:39:14.867Z,16.10
2022-09-12T22:41:41.339Z,15.98
2022-09-12T22:44:07.974Z,16.21
2022-09-12T22:46:34.598Z,16.26
2022-09-12T22:49:01.212Z,16.19
2022-09-12T22:51:27.732Z,16.27
2022-09-12T22:53:54.190Z,16.12
2022-09-12T22:56:21.083Z,16.03
2022-09-12T22:58:47.674Z,16.24
2022-09-12T23:01:14.528Z,16.14
2022-09-12T23:03:41.214Z,16.22
2022-09-12T23:06:09.917Z,16.23
2022-09-12T23:08:37.989Z,16.25
2022-09-12T23:11:13.129Z,16.22
2022-09-12T23:13:42.448Z,15.88
2022-09-12T23:16:15.149Z,15.63
2022-09-12T23:18:41.941Z,16.03
2022-09-12T23:21:10.433Z,16.17
2022-09-12T23:23:37.416Z,16.15
2022-09-12T23:26:13.221Z,15.85
2022-09-12T23:28:41.731Z,15.49
2022-09-12T23:31:12.171Z,15.49
2022-09-12T23:33:38.700Z,15.59
2022-09-12T23:36:08.784Z,15.52
2022-09-12T23:38:35.973Z,15.75
2022-09-12T23:41:03.908Z,15.67
2022-09-12T23:43:31.067Z,16.00
2022-09-12T23:45:58.193Z,16.00
2022-09-12T23:48:25.057Z,15.77
2022-09-12T23:50:51.671Z,15.74
2022-09-12T23:53:18.747Z,15.71
2022-09-12T23:55:45.478Z,15.66
2022-09-12T23:58:12.861Z,15.64
